Denver International Airport
KDEN : now visible

Airfield :











YOU CAN JOIN US ON...

 
LOGIN :

Register | Disclaimer

   EN    FR    IT 

 









Legend :    VFR   Marginal VFR   IFR   Intensive IFR   Very Intensive IFR
Visi :
Ceiling :
>= 8 km
>= 3000ft
5 to 8 km
1000 to 3000 ft
1500m to 5 km
500 to 1000 ft
800 to 1500m
200 to 500 ft
< 800m
< 200 ft
Symbols :   Thunderstorms  Fog  Heavy snow  Heavy precipitations  Wind > 20 kt






- Airport Elevation : 5431 ft
- IATA code : DEN


KDEN - Denver International

CURRENT METAR :
  • 230753Z 20008KT 8SM CLR 16/10 A3024 RMK AO2 SLP164 T01610100

EXPIRED METARs :
  • 230653Z 20008KT 9SM CLR 18/09 A3024 RMK AO2 SLP161 T01830094 402890139
  • 230553Z 20008KT 9SM CLR 19/10 A3024 RMK AO2 SLP164 T01890100 10278 20178 50007
  • 230453Z 20010KT 9SM CLR 20/10 A3024 RMK AO2 SLP164 T02000100
  • 230353Z 14005KT 9SM CLR 19/11 A3024 RMK AO2 SLP167 T01890106
  • 230253Z 10006KT 9SM FEW100 20/11 A3022 RMK AO2 SLP161 T02000106 51006

TAF KDEN
Valid from the 23 at 06:00 until the 24 at 12:00 UTC


230520Z 2306/2412 20009KT P6SM FU SKC
FM231100 24007KT P6SM FU SKC
FM231600 VRB05KT P6SM FU FEW250
FM231900 05007KT P6SM FU FEW250
FM240000 08008KT P6SM FU FEW250
FM240200 14009KT P6SM FU FEW250
FM240600 18011KT P6SM FU SKC
KZDV FIR / North America



MET'MAP, your aeronautical weather chart ! - Copyright ORBIFLY December 2007 - Disclaimer

ORBIFLY MET'MAP TEAM :

Programming & Development : Alexandra Zaïnal
Original concept : Baudouin d'Aumeries
Technical & hardware support : Manuel Goepfert
Assistance : Marc-Olivier Méhu




SOURCES & CREDITS :

   NOAA       Earth
Advisory